Bloom City, Wisconsin
Current Conditions -  °F | °C
As of 7:15 AM on Thursday 27 Nov 2014 (Local Time) from KC35 Reporting Station
Light Snow Light Snow  
Wind Chill:   Ceiling: 1900
Heat Index: 17°   Visibility: 3mi
Dew Point: 13°   Wind: 8mph
Humidity: 85%   Direction: 330°NNW
Pressure: 30.34"   Gusts: NA
Location:  43.6121°N, 90.3998°W
Report Text: KC35 271315Z AUTO 33007KT 3SM -SN OVC019 M08/M11 A3034 RMK AO2 T10851106
Loading
Personal Weather Stations






























Interactive Weather Map New forecast layout! Learn more

10-Day Weather Forecast

Advertisements
Track Severe Weather on mobile